Corapeake, North Carolina
Current Conditions -  °F | °C
As of 12:35 PM on Tuesday 21 Oct 2014 (Local Time) from KCPK Reporting Station
Scattered Clouds Scattered Clouds  
Wind Chill: 73°   Ceiling: Unl
Heat Index: 73°   Visibility: 10mi
Dew Point: 55°   Wind: 6mph
Humidity: 53%   Direction: 250°WSW
Pressure: 29.87"   Gusts: NA
Location:  36.53°N, 76.58°W
Report Text: KCPK 211635Z AUTO 25005KT 10SM SCT080 23/13 A2987 RMK AO2 LTG DSNT E
Loading
Personal Weather Stations






























Interactive Weather Map New forecast layout! Learn more

10-Day Weather Forecast

Advertisements
Track Severe Weather on mobile